createdAt,value
2019-04-10T06:28:30.973Z,21.13
2019-04-10T06:29:04.879Z,21.84
2019-04-10T06:30:21.745Z,22.27
2019-04-10T06:36:41.619Z,22.23
2019-04-10T06:41:46.756Z,22.08
2019-04-10T06:46:50.742Z,21.93
2019-04-10T06:51:56.089Z,21.83
2019-04-10T06:57:00.719Z,21.62
2019-04-10T07:02:19.488Z,21.40
2019-04-10T07:07:13.749Z,20.98
2019-04-10T07:12:16.466Z,21.00
2019-04-10T07:17:20.165Z,20.91
2019-04-10T07:22:24.693Z,20.96
2019-04-10T07:27:33.586Z,21.08
2019-04-10T07:32:36.066Z,21.21
2019-04-10T07:37:40.385Z,21.23
2019-04-10T07:42:44.234Z,21.07
2019-04-10T07:47:48.364Z,21.11
2019-04-10T07:52:52.184Z,20.62
2019-04-10T07:57:55.764Z,20.36
2019-04-10T08:02:59.746Z,20.26
2019-04-10T08:08:05.273Z,20.24
2019-04-10T08:13:08.887Z,20.39
2019-04-10T08:18:12.548Z,20.28
2019-04-10T08:23:17.457Z,20.37
2019-04-10T08:28:22.049Z,20.21
2019-04-10T08:33:28.582Z,20.22
2019-04-10T08:38:32.613Z,20.05
2019-04-10T08:43:37.500Z,20.25
2019-04-10T08:48:41.525Z,20.24
2019-04-10T08:53:46.642Z,20.57
2019-04-10T08:58:51.689Z,20.71
2019-04-10T09:03:55.340Z,20.08
2019-04-10T09:08:59.618Z,19.98
2019-04-10T09:14:03.364Z,20.02
2019-04-10T09:19:06.905Z,19.99
2019-04-10T09:24:10.359Z,20.14
2019-04-10T09:29:14.090Z,20.10
2019-04-10T09:34:18.012Z,19.97
2019-04-10T09:39:21.924Z,19.98
2019-04-10T09:44:25.703Z,19.93
2019-04-10T09:49:35.632Z,20.02
2019-04-10T09:54:34.936Z,19.91
2019-04-10T09:59:40.099Z,20.39
2019-04-10T10:04:48.081Z,19.79
2019-04-10T10:09:52.962Z,20.04
2019-04-10T10:14:56.292Z,20.02
2019-04-10T10:30:58.317Z,19.52
2019-04-10T10:36:03.255Z,19.59
2019-04-10T10:41:07.482Z,19.73
2019-04-10T10:46:11.422Z,19.97
2019-04-10T10:51:16.505Z,19.73
2019-04-10T10:56:20.343Z,19.90
2019-04-10T11:01:27.574Z,19.65
2019-04-10T11:06:33.133Z,19.58
2019-04-10T11:11:37.427Z,19.39
2019-04-10T11:16:41.119Z,19.14
2019-04-10T11:21:45.119Z,19.09
2019-04-10T11:26:50.393Z,18.93
2019-04-10T11:31:55.599Z,18.87
2019-04-10T11:37:16.524Z,18.90
2019-04-10T11:42:06.554Z,18.93
2019-04-10T11:47:10.623Z,18.90
2019-04-10T11:52:19.091Z,18.88
2019-04-10T11:57:22.864Z,18.95
2019-04-10T12:02:28.191Z,18.90
2019-04-10T12:12:37.819Z,19.04
2019-04-10T12:17:42.990Z,18.90
2019-04-10T12:22:48.077Z,18.82
2019-04-10T12:27:51.673Z,18.98
2019-04-10T12:32:56.759Z,18.78
2019-04-10T12:38:07.153Z,18.64
2019-04-10T12:43:08.566Z,18.63
2019-04-10T12:48:12.550Z,18.81
2019-04-10T12:53:16.207Z,18.72
2019-04-10T12:58:20.712Z,18.70
2019-04-10T13:03:27.217Z,18.71
2019-04-10T13:08:51.468Z,18.78
2019-04-10T13:13:38.233Z,18.62
2019-04-10T13:18:42.704Z,18.77
2019-04-10T13:23:46.899Z,18.71
2019-04-10T13:28:51.822Z,18.62
2019-04-10T13:33:57.197Z,18.81
2019-04-10T13:39:02.432Z,18.68
2019-04-10T13:44:08.723Z,18.72
